Kathmandu, Nepal
Current Conditions -  °F | °C
As of 10:50 AM on Saturday 25 Oct 2014 (Local Time) from VNKT Reporting Station
Few Clouds Few Clouds  
Wind Chill: 73°   Ceiling: Unl
Heat Index: 73°   Visibility: 5mi
Dew Point: 55°   Wind: 0mph
Humidity: 53%   Direction: NA
Pressure: 30.15"   Gusts: NA
Location:  27.71°N, 85.31°E
Report Text: VNKT 250550Z 00000KT 8000 FEW025 23/13 Q1021 NOSIG
Loading
Personal Weather Stations






























Interactive Weather Map New forecast layout! Learn more

10-Day Weather Forecast

Advertisements
Track Severe Weather on mobile